Time;durP1;ratioP1;P1;durP2;ratioP2;P2;SDS_P1;SDS_P2;PMS_P1;PMS_P2;Temp;Humidity;BMP_temperature;BMP_pressure;BME280_temperature;BME280_humidity;BME280_pressure;Samples;Min_cycle;Max_cycle;Signal;HPM_P1;HPM_P2
2022/12/29 00:00:01;;;;;;;7.13;4.83;;;;;;;;;;5018841;28;20601;-27
2022/12/29 00:02:28;;;;;;;8.00;4.97;;;;;;;;;;5029380;28;20712;-27
2022/12/29 00:04:55;;;;;;;7.50;5.80;;;;;;;;;;5022118;28;20202;-29
2022/12/29 00:07:24;;;;;;;7.60;5.60;;;;;;;;;;5021828;28;20638;-27
2022/12/29 00:09:51;;;;;;;6.63;5.33;;;;;;;;;;5028263;28;20214;-26
2022/12/29 00:12:18;;;;;;;6.80;5.00;;;;;;;;;;5024615;28;20223;-27
2022/12/29 00:17:31;;;;;;;7.50;5.17;;;;;;;;;;5029087;28;20710;-27
2022/12/29 00:36:33;;;;;;;6.23;4.47;;;;;;;;;;5021045;28;20240;-27
2022/12/29 00:44:32;;;;;;;6.00;4.57;;;;;;;;;;5016835;28;20253;-28
2022/12/29 00:47:02;;;;;;;7.87;5.37;;;;;;;;;;5028799;28;20660;-27
2022/12/29 00:49:31;;;;;;;7.77;5.00;;;;;;;;;;5028954;28;20240;-27
2022/12/29 00:51:59;;;;;;;6.47;5.00;;;;;;;;;;5019804;28;20227;-27
2022/12/29 00:54:28;;;;;;;6.40;4.50;;;;;;;;;;5028985;28;20213;-26
2022/12/29 00:56:55;;;;;;;8.83;4.90;;;;;;;;;;5027180;28;20218;-26
2022/12/29 00:59:23;;;;;;;6.50;4.87;;;;;;;;;;5013845;28;20235;-26
2022/12/29 01:01:51;;;;;;;8.20;5.43;;;;;;;;;;5028196;28;20234;-25
2022/12/29 01:04:18;;;;;;;7.63;4.97;;;;;;;;;;5029630;28;20305;-25
2022/12/29 01:06:45;;;;;;;7.23;4.30;;;;;;;;;;5019215;28;20202;-26
2022/12/29 01:11:59;;;;;;;8.43;4.60;;;;;;;;;;5023710;28;20234;-27
2022/12/29 01:14:26;;;;;;;6.73;4.93;;;;;;;;;;5013561;28;20214;-28
2022/12/29 01:16:53;;;;;;;6.70;5.10;;;;;;;;;;5021782;28;20649;-27
2022/12/29 01:19:21;;;;;;;5.60;4.57;;;;;;;;;;5020888;28;20213;-26
2022/12/29 01:21:48;;;;;;;5.83;4.27;;;;;;;;;;5022206;28;20231;-27
2022/12/29 01:24:15;;;;;;;5.77;4.43;;;;;;;;;;5022532;28;20211;-27
2022/12/29 01:26:42;;;;;;;8.80;5.20;;;;;;;;;;5029181;28;20213;-26
2022/12/29 01:29:11;;;;;;;6.63;4.63;;;;;;;;;;5026247;28;20211;-29
2022/12/29 01:31:38;;;;;;;6.77;4.87;;;;;;;;;;5032649;28;20233;-26
2022/12/29 01:34:05;;;;;;;7.30;4.73;;;;;;;;;;5033082;28;20207;-28
2022/12/29 01:36:32;;;;;;;6.87;4.63;;;;;;;;;;5020667;28;20645;-29
2022/12/29 01:39:00;;;;;;;9.13;4.97;;;;;;;;;;5032344;28;20469;-28
2022/12/29 01:41:27;;;;;;;12.13;4.97;;;;;;;;;;5033251;28;20218;-27
2022/12/29 01:43:56;;;;;;;8.20;5.43;;;;;;;;;;5020729;28;20217;-28
2022/12/29 01:46:27;;;;;;;6.10;4.90;;;;;;;;;;5031854;28;20211;-27
2022/12/29 01:48:55;;;;;;;7.43;4.67;;;;;;;;;;5033268;28;20213;-27
2022/12/29 01:51:23;;;;;;;6.57;4.60;;;;;;;;;;5026477;28;20227;-29
2022/12/29 01:53:51;;;;;;;6.67;4.90;;;;;;;;;;5029357;28;20218;-27
2022/12/29 01:56:20;;;;;;;9.30;4.73;;;;;;;;;;5034328;28;20737;-28
2022/12/29 01:58:50;;;;;;;9.10;4.97;;;;;;;;;;5026355;28;20233;-27
2022/12/29 02:01:19;;;;;;;5.50;4.20;;;;;;;;;;5018903;28;20361;-26
2022/12/29 02:03:48;;;;;;;7.07;4.43;;;;;;;;;;5025449;28;20207;-27
2022/12/29 02:06:17;;;;;;;5.13;4.63;;;;;;;;;;5032107;28;20206;-26
2022/12/29 02:08:48;;;;;;;6.60;4.37;;;;;;;;;;5026631;28;20207;-26
2022/12/29 02:11:15;;;;;;;5.67;4.40;;;;;;;;;;5031564;28;20300;-29
2022/12/29 02:13:42;;;;;;;5.77;4.70;;;;;;;;;;5026154;28;20206;-27
2022/12/29 02:16:16;;;;;;;6.73;4.93;;;;;;;;;;5031905;28;20209;-26
2022/12/29 02:18:50;;;;;;;5.77;4.50;;;;;;;;;;5027699;28;20294;-27
2022/12/29 02:21:36;;;;;;;8.53;4.47;;;;;;;;;;5013302;28;20766;-29
2022/12/29 02:24:14;;;;;;;5.93;4.80;;;;;;;;;;5026292;28;20593;-29
2022/12/29 02:26:57;;;;;;;6.90;4.93;;;;;;;;;;5029248;28;20233;-27
2022/12/29 02:29:50;;;;;;;6.97;4.73;;;;;;;;;;5018724;28;20230;-28
2022/12/29 02:32:20;;;;;;;5.80;4.57;;;;;;;;;;5031090;28;20238;-28
2022/12/29 02:34:50;;;;;;;5.07;4.43;;;;;;;;;;5021646;28;20214;-28
2022/12/29 02:37:21;;;;;;;7.53;4.93;;;;;;;;;;5015832;28;20265;-27
2022/12/29 02:39:52;;;;;;;5.60;4.23;;;;;;;;;;5023132;28;20641;-26
2022/12/29 02:42:23;;;;;;;5.73;4.30;;;;;;;;;;5027231;28;20222;-26
2022/12/29 02:44:54;;;;;;;5.97;4.50;;;;;;;;;;5025945;28;20202;-28
2022/12/29 02:47:26;;;;;;;8.70;4.47;;;;;;;;;;5030399;28;20560;-28
2022/12/29 02:49:58;;;;;;;6.00;4.50;;;;;;;;;;5016798;28;20206;-26
2022/12/29 02:52:27;;;;;;;6.57;4.90;;;;;;;;;;5019990;28;20537;-28
2022/12/29 02:54:54;;;;;;;5.07;4.33;;;;;;;;;;5031615;28;20207;-27
2022/12/29 02:57:30;;;;;;;6.93;4.67;;;;;;;;;;5024551;28;20674;-27
2022/12/29 02:59:58;;;;;;;4.80;3.57;;;;;;;;;;5018600;28;20226;-27
2022/12/29 03:02:32;;;;;;;5.13;4.00;;;;;;;;;;5029412;28;20226;-27
2022/12/29 03:05:17;;;;;;;6.77;4.90;;;;;;;;;;5025479;28;20206;-27
2022/12/29 03:07:48;;;;;;;6.77;4.70;;;;;;;;;;5018811;28;20202;-27
2022/12/29 03:10:26;;;;;;;5.87;4.03;;;;;;;;;;5026698;28;20533;-26
2022/12/29 03:16:03;;;;;;;5.03;4.00;;;;;;;;;;5030481;28;20205;-28
2022/12/29 03:18:34;;;;;;;4.50;3.57;;;;;;;;;;5028828;28;20211;-28
2022/12/29 03:21:05;;;;;;;5.23;4.17;;;;;;;;;;5023224;28;20253;-27
2022/12/29 03:23:33;;;;;;;6.47;4.77;;;;;;;;;;5030009;28;20226;-30
2022/12/29 03:26:03;;;;;;;6.33;4.63;;;;;;;;;;5031821;28;20245;-27
2022/12/29 03:28:34;;;;;;;6.17;4.57;;;;;;;;;;5023504;28;20207;-25
2022/12/29 03:31:02;;;;;;;5.70;4.20;;;;;;;;;;5030121;28;20296;-25
2022/12/29 03:33:30;;;;;;;4.63;4.10;;;;;;;;;;5030437;28;20199;-27
2022/12/29 03:36:00;;;;;;;7.70;4.70;;;;;;;;;;5023096;28;20202;-27
2022/12/29 03:38:30;;;;;;;6.37;3.73;;;;;;;;;;5019322;28;20207;-27
2022/12/29 03:40:59;;;;;;;5.67;4.07;;;;;;;;;;5024371;28;20234;-26
2022/12/29 03:43:27;;;;;;;8.77;4.87;;;;;;;;;;5020748;28;20214;-27
2022/12/29 03:45:54;;;;;;;4.50;4.07;;;;;;;;;;5025166;28;20210;-28
2022/12/29 03:48:21;;;;;;;8.27;4.40;;;;;;;;;;5021848;28;20207;-25
2022/12/29 03:50:48;;;;;;;5.07;3.40;;;;;;;;;;5026641;28;20220;-26
2022/12/29 03:53:17;;;;;;;4.03;2.90;;;;;;;;;;5021321;28;20233;-28
2022/12/29 03:55:44;;;;;;;6.00;2.53;;;;;;;;;;5033985;28;20207;-26
2022/12/29 03:58:11;;;;;;;3.90;2.77;;;;;;;;;;5027201;28;20206;-26
2022/12/29 04:00:38;;;;;;;3.63;2.90;;;;;;;;;;5024645;28;20219;-28
2022/12/29 04:03:05;;;;;;;5.10;3.30;;;;;;;;;;5023728;28;20219;-27
2022/12/29 04:05:32;;;;;;;4.53;3.50;;;;;;;;;;5029337;28;20210;-29
2022/12/29 04:07:59;;;;;;;5.87;3.93;;;;;;;;;;5015644;28;20206;-28
2022/12/29 04:10:28;;;;;;;3.93;3.10;;;;;;;;;;5027252;28;20203;-29
2022/12/29 04:12:55;;;;;;;5.70;3.50;;;;;;;;;;5018837;28;20226;-26
2022/12/29 04:15:23;;;;;;;6.13;3.30;;;;;;;;;;5021980;28;20211;-26
2022/12/29 04:17:51;;;;;;;5.77;3.53;;;;;;;;;;5025528;28;20226;-28
2022/12/29 04:23:03;;;;;;;4.87;3.27;;;;;;;;;;5020940;28;20225;-26
2022/12/29 04:25:31;;;;;;;4.93;3.07;;;;;;;;;;5031086;28;20210;-28
2022/12/29 04:27:58;;;;;;;4.40;3.13;;;;;;;;;;5024599;28;20210;-28
2022/12/29 04:30:26;;;;;;;4.03;2.70;;;;;;;;;;5025996;28;20203;-28
2022/12/29 04:32:53;;;;;;;4.57;3.10;;;;;;;;;;5032173;28;20206;-28
2022/12/29 04:35:20;;;;;;;5.07;2.23;;;;;;;;;;5032591;28;20534;-26
2022/12/29 04:37:47;;;;;;;4.70;3.37;;;;;;;;;;5024758;28;20206;-27
2022/12/29 04:40:14;;;;;;;4.00;2.70;;;;;;;;;;5031430;28;20206;-28
2022/12/29 04:42:43;;;;;;;4.93;3.10;;;;;;;;;;5023966;28;20223;-28
2022/12/29 04:45:10;;;;;;;5.43;3.43;;;;;;;;;;5024815;28;20211;-27
2022/12/29 04:47:37;;;;;;;5.10;2.97;;;;;;;;;;5028265;28;20218;-28
2022/12/29 04:50:05;;;;;;;4.23;3.30;;;;;;;;;;5026270;28;20199;-28
2022/12/29 04:52:32;;;;;;;4.83;3.37;;;;;;;;;;5018025;28;20219;-27
2022/12/29 04:54:59;;;;;;;5.43;2.70;;;;;;;;;;5030246;28;20207;-26
2022/12/29 04:57:26;;;;;;;3.53;2.47;;;;;;;;;;5024358;28;20203;-26
2022/12/29 04:59:55;;;;;;;3.37;2.47;;;;;;;;;;5020990;28;20206;-26
2022/12/29 05:02:22;;;;;;;3.73;2.60;;;;;;;;;;5032102;28;20237;-28
2022/12/29 05:04:49;;;;;;;8.07;2.47;;;;;;;;;;5033968;28;20206;-28
2022/12/29 05:07:16;;;;;;;2.70;2.50;;;;;;;;;;5028738;28;20214;-29
2022/12/29 05:09:43;;;;;;;3.63;2.53;;;;;;;;;;5032154;28;20217;-28
2022/12/29 05:12:10;;;;;;;2.30;2.10;;;;;;;;;;5028939;28;20222;-29
2022/12/29 05:14:38;;;;;;;3.70;2.33;;;;;;;;;;5021455;28;20207;-26
2022/12/29 05:17:06;;;;;;;2.00;1.70;;;;;;;;;;5032784;28;20215;-26
2022/12/29 05:19:33;;;;;;;7.63;2.00;;;;;;;;;;5033129;28;20209;-27
2022/12/29 05:22:00;;;;;;;1.40;1.30;;;;;;;;;;5028905;28;20222;-28
2022/12/29 05:24:27;;;;;;;1.73;1.63;;;;;;;;;;5031843;28;20202;-26
2022/12/29 05:26:54;;;;;;;3.70;1.60;;;;;;;;;;5027879;28;20205;-26
2022/12/29 05:29:22;;;;;;;2.80;1.30;;;;;;;;;;5028163;28;20210;-26
2022/12/29 05:31:49;;;;;;;1.37;1.27;;;;;;;;;;5031798;28;20252;-27
2022/12/29 05:34:17;;;;;;;1.30;1.20;;;;;;;;;;5025080;28;20206;-27
2022/12/29 05:36:44;;;;;;;2.77;1.20;;;;;;;;;;5023179;28;20203;-27
2022/12/29 05:39:11;;;;;;;1.30;1.20;;;;;;;;;;5027545;28;20214;-27
2022/12/29 05:41:39;;;;;;;4.43;1.47;;;;;;;;;;5030202;28;20230;-28
2022/12/29 05:44:06;;;;;;;3.67;1.53;;;;;;;;;;5028647;28;20222;-27
2022/12/29 05:46:33;;;;;;;3.23;1.33;;;;;;;;;;5030951;28;20206;-27
2022/12/29 05:49:00;;;;;;;2.17;1.10;;;;;;;;;;5026855;28;20210;-26
2022/12/29 05:51:28;;;;;;;3.53;1.10;;;;;;;;;;5026730;28;20219;-29
2022/12/29 05:53:56;;;;;;;2.13;1.10;;;;;;;;;;5031419;28;20209;-28
2022/12/29 05:56:23;;;;;;;2.10;1.03;;;;;;;;;;5026474;28;20210;-28
2022/12/29 05:58:50;;;;;;;2.97;1.27;;;;;;;;;;5018353;28;20231;-29
2022/12/29 06:01:17;;;;;;;1.97;1.27;;;;;;;;;;5026312;28;20230;-28
2022/12/29 06:03:44;;;;;;;3.13;1.33;;;;;;;;;;5023640;28;20199;-28
2022/12/29 06:06:11;;;;;;;1.30;1.20;;;;;;;;;;5031015;28;20206;-28
2022/12/29 06:08:40;;;;;;;2.40;1.20;;;;;;;;;;5018147;28;20214;-27
2022/12/29 06:11:07;;;;;;;1.67;1.20;;;;;;;;;;5026615;28;20219;-27
2022/12/29 06:13:34;;;;;;;1.30;1.20;;;;;;;;;;5025213;28;20202;-27
2022/12/29 06:16:01;;;;;;;2.57;1.63;;;;;;;;;;5031391;28;20630;-29
2022/12/29 06:18:28;;;;;;;3.57;2.57;;;;;;;;;;5031917;28;20203;-27
2022/12/29 06:20:56;;;;;;;3.47;2.00;;;;;;;;;;5021184;28;20707;-28
2022/12/29 06:23:23;;;;;;;2.07;1.87;;;;;;;;;;5022658;28;20202;-28
2022/12/29 06:25:51;;;;;;;2.50;2.27;;;;;;;;;;5013538;28;20203;-29
2022/12/29 06:28:18;;;;;;;3.17;2.07;;;;;;;;;;5023334;28;20222;-30
2022/12/29 06:30:45;;;;;;;4.80;2.20;;;;;;;;;;5028101;28;20226;-29
2022/12/29 06:33:13;;;;;;;3.80;2.30;;;;;;;;;;5032141;28;20394;-30
2022/12/29 06:35:40;;;;;;;4.97;2.10;;;;;;;;;;5031725;28;20203;-28
2022/12/29 06:38:07;;;;;;;3.10;2.20;;;;;;;;;;5019537;28;20211;-28
2022/12/29 06:40:35;;;;;;;1.50;1.40;;;;;;;;;;5030531;28;20206;-29
2022/12/29 06:43:03;;;;;;;5.70;3.10;;;;;;;;;;5025399;28;20223;-27
2022/12/29 06:45:30;;;;;;;4.83;1.83;;;;;;;;;;5030734;28;20211;-28
2022/12/29 06:47:57;;;;;;;3.40;2.97;;;;;;;;;;5023623;28;20211;-28
2022/12/29 06:50:24;;;;;;;2.43;2.23;;;;;;;;;;5030616;28;20211;-28
2022/12/29 06:52:51;;;;;;;4.10;2.63;;;;;;;;;;5031864;28;20248;-28
2022/12/29 06:55:19;;;;;;;3.07;2.07;;;;;;;;;;5031304;28;20213;-28
2022/12/29 06:57:46;;;;;;;2.93;2.60;;;;;;;;;;5010330;28;20207;-27
2022/12/29 07:00:15;;;;;;;3.90;2.47;;;;;;;;;;5025901;28;20210;-26
2022/12/29 07:02:42;;;;;;;2.70;1.60;;;;;;;;;;5030886;28;20233;-29
2022/12/29 07:05:10;;;;;;;4.23;2.10;;;;;;;;;;5023515;28;20665;-28
2022/12/29 07:07:37;;;;;;;3.30;1.77;;;;;;;;;;5013572;28;20302;-28
2022/12/29 07:10:04;;;;;;;2.23;2.03;;;;;;;;;;5024746;28;20214;-29
2022/12/29 07:12:31;;;;;;;2.70;1.90;;;;;;;;;;5023533;28;20232;-29
2022/12/29 07:14:58;;;;;;;2.30;2.10;;;;;;;;;;5029767;28;20210;-30
2022/12/29 07:17:27;;;;;;;2.50;2.20;;;;;;;;;;5022748;28;20217;-29
2022/12/29 07:19:54;;;;;;;2.30;2.10;;;;;;;;;;5029346;28;20207;-28
2022/12/29 07:22:21;;;;;;;2.57;2.27;;;;;;;;;;5030763;28;20231;-28
2022/12/29 07:24:48;;;;;;;1.70;1.60;;;;;;;;;;5032448;28;20214;-28
2022/12/29 07:27:15;;;;;;;3.07;1.93;;;;;;;;;;5025358;28;20195;-28
2022/12/29 07:29:42;;;;;;;7.53;2.53;;;;;;;;;;5026550;28;20206;-28
2022/12/29 07:32:10;;;;;;;2.87;2.50;;;;;;;;;;5032965;28;20801;-27
2022/12/29 07:34:39;;;;;;;4.57;2.73;;;;;;;;;;5030790;28;20210;-29
2022/12/29 07:37:06;;;;;;;4.53;2.33;;;;;;;;;;5023625;28;20603;-29
2022/12/29 07:39:33;;;;;;;5.40;2.70;;;;;;;;;;5019157;28;20206;-26
2022/12/29 07:42:01;;;;;;;5.93;2.27;;;;;;;;;;5018955;28;20230;-27
2022/12/29 07:44:28;;;;;;;2.73;2.40;;;;;;;;;;5019952;28;20218;-27
2022/12/29 07:46:55;;;;;;;3.33;2.50;;;;;;;;;;5031890;28;20207;-27
2022/12/29 07:49:22;;;;;;;5.30;2.37;;;;;;;;;;5018702;28;20218;-29
2022/12/29 07:51:50;;;;;;;3.50;2.10;;;;;;;;;;5029258;28;20222;-29
2022/12/29 07:54:18;;;;;;;3.40;2.63;;;;;;;;;;5032104;28;20767;-28
2022/12/29 07:56:46;;;;;;;3.47;2.37;;;;;;;;;;5024692;28;20230;-26
2022/12/29 07:59:13;;;;;;;4.27;3.20;;;;;;;;;;5021968;28;20841;-27
2022/12/29 08:01:41;;;;;;;5.23;3.00;;;;;;;;;;5020892;28;20233;-29
2022/12/29 08:04:08;;;;;;;3.27;2.87;;;;;;;;;;5025976;28;20205;-26
2022/12/29 08:06:37;;;;;;;5.40;3.53;;;;;;;;;;5028814;28;20207;-26
2022/12/29 08:09:07;;;;;;;4.37;3.20;;;;;;;;;;5026532;28;20257;-28
2022/12/29 08:11:34;;;;;;;5.83;3.30;;;;;;;;;;5024988;28;20229;-28
2022/12/29 08:14:01;;;;;;;6.40;3.30;;;;;;;;;;5027590;28;20302;-28
2022/12/29 08:16:28;;;;;;;3.57;2.07;;;;;;;;;;5031754;28;20199;-28
2022/12/29 08:18:55;;;;;;;7.43;3.53;;;;;;;;;;5030875;28;20207;-28
2022/12/29 08:21:22;;;;;;;7.80;3.93;;;;;;;;;;5022041;28;20230;-29
2022/12/29 08:23:49;;;;;;;4.00;2.83;;;;;;;;;;5024755;28;20207;-28
2022/12/29 08:26:18;;;;;;;6.40;3.10;;;;;;;;;;5029560;28;20206;-27
2022/12/29 08:28:45;;;;;;;6.30;3.03;;;;;;;;;;5019732;28;20601;-27
2022/12/29 08:31:12;;;;;;;6.23;3.77;;;;;;;;;;5024580;28;20238;-29
2022/12/29 08:33:39;;;;;;;5.70;3.23;;;;;;;;;;5025627;28;20199;-28
2022/12/29 08:36:07;;;;;;;5.43;3.10;;;;;;;;;;5022672;28;20222;-29
2022/12/29 08:38:35;;;;;;;4.47;2.57;;;;;;;;;;5022626;28;20199;-28
2022/12/29 08:41:02;;;;;;;6.33;2.70;;;;;;;;;;5029207;28;20229;-28
2022/12/29 08:43:30;;;;;;;4.63;3.27;;;;;;;;;;5026017;28;20230;-27
2022/12/29 08:45:58;;;;;;;6.50;2.67;;;;;;;;;;5026935;28;20212;-29
2022/12/29 08:48:26;;;;;;;3.13;2.73;;;;;;;;;;5031954;28;20195;-27
2022/12/29 08:50:53;;;;;;;3.27;2.70;;;;;;;;;;5029038;28;20234;-28
2022/12/29 08:53:20;;;;;;;6.10;3.03;;;;;;;;;;5022587;28;20213;-27
2022/12/29 08:55:47;;;;;;;3.23;2.60;;;;;;;;;;5031774;28;20198;-28
2022/12/29 08:58:16;;;;;;;3.43;2.23;;;;;;;;;;5025430;28;20199;-26
2022/12/29 09:00:44;;;;;;;2.43;1.80;;;;;;;;;;5030678;28;20237;-28
2022/12/29 09:03:11;;;;;;;5.60;2.10;;;;;;;;;;5031556;28;20218;-28
2022/12/29 09:05:39;;;;;;;3.10;2.33;;;;;;;;;;5027566;28;20221;-28
2022/12/29 09:08:06;;;;;;;3.33;2.70;;;;;;;;;;5026043;28;20217;-29
2022/12/29 09:10:33;;;;;;;5.90;2.33;;;;;;;;;;5031058;28;20213;-28
2022/12/29 09:13:00;;;;;;;1.97;1.70;;;;;;;;;;5026733;28;20207;-27
2022/12/29 09:15:27;;;;;;;4.43;1.63;;;;;;;;;;5031197;28;20221;-27
2022/12/29 09:17:56;;;;;;;3.50;1.70;;;;;;;;;;5030119;28;20202;-27
2022/12/29 09:20:29;;;;;;;1.63;1.20;;;;;;;;;;5021251;28;20207;-28
2022/12/29 09:22:56;;;;;;;2.00;1.60;;;;;;;;;;5027503;28;20242;-27
2022/12/29 09:25:24;;;;;;;2.77;1.13;;;;;;;;;;5031905;28;20211;-27
2022/12/29 09:27:52;;;;;;;1.63;1.53;;;;;;;;;;5025235;28;20215;-26
2022/12/29 09:30:20;;;;;;;1.60;1.50;;;;;;;;;;5025559;28;20206;-30
2022/12/29 09:32:47;;;;;;;3.83;1.60;;;;;;;;;;5031461;28;20202;-29
2022/12/29 09:35:17;;;;;;;4.13;2.77;;;;;;;;;;5027879;28;20207;-28
2022/12/29 09:37:44;;;;;;;3.60;2.30;;;;;;;;;;5025374;28;20207;-27
2022/12/29 09:40:18;;;;;;;2.53;2.00;;;;;;;;;;5029614;28;20213;-27
2022/12/29 09:42:52;;;;;;;3.77;1.90;;;;;;;;;;5029212;28;20218;-28
2022/12/29 09:45:21;;;;;;;2.93;2.17;;;;;;;;;;5029576;28;20206;-28
2022/12/29 09:47:49;;;;;;;2.47;1.60;;;;;;;;;;5034641;28;20203;-28
2022/12/29 09:50:21;;;;;;;2.13;1.50;;;;;;;;;;5013345;28;20202;-30
2022/12/29 09:52:50;;;;;;;3.13;1.40;;;;;;;;;;5027579;28;20234;-30
2022/12/29 09:55:18;;;;;;;2.07;1.63;;;;;;;;;;5030556;28;20224;-28
2022/12/29 09:57:48;;;;;;;4.47;1.47;;;;;;;;;;5027300;28;20203;-28
2022/12/29 10:00:16;;;;;;;1.27;1.10;;;;;;;;;;5031972;28;20210;-27
2022/12/29 10:02:45;;;;;;;3.57;1.47;;;;;;;;;;5031875;28;20223;-28
2022/12/29 10:05:20;;;;;;;1.23;1.13;;;;;;;;;;5033346;28;20194;-27
2022/12/29 10:07:52;;;;;;;2.67;2.23;;;;;;;;;;5028132;28;20211;-28
2022/12/29 10:10:28;;;;;;;3.30;2.10;;;;;;;;;;5033297;28;20191;-26
2022/12/29 10:13:00;;;;;;;2.20;1.40;;;;;;;;;;5029822;28;20210;-28
2022/12/29 10:15:34;;;;;;;2.90;1.10;;;;;;;;;;5029573;28;20209;-27
2022/12/29 10:18:05;;;;;;;1.27;1.17;;;;;;;;;;5033224;28;20194;-27
2022/12/29 10:20:34;;;;;;;1.20;1.10;;;;;;;;;;5030143;28;20199;-25
2022/12/29 10:23:16;;;;;;;3.60;1.40;;;;;;;;;;5028254;28;20222;-28
2022/12/29 10:25:45;;;;;;;2.30;1.50;;;;;;;;;;5031756;28;20209;-28
2022/12/29 10:28:19;;;;;;;1.20;1.10;;;;;;;;;;5021037;28;20208;-28
2022/12/29 10:30:47;;;;;;;1.33;1.20;;;;;;;;;;5028334;28;20230;-29
2022/12/29 10:33:18;;;;;;;1.80;1.43;;;;;;;;;;5034477;28;20199;-28
2022/12/29 10:35:45;;;;;;;2.80;1.30;;;;;;;;;;5017909;28;20292;-29
2022/12/29 10:38:17;;;;;;;2.33;1.30;;;;;;;;;;5023517;28;20207;-26
2022/12/29 10:40:48;;;;;;;1.90;1.47;;;;;;;;;;5034297;28;20218;-30
2022/12/29 10:43:20;;;;;;;1.60;1.30;;;;;;;;;;5028272;28;20241;-29
2022/12/29 10:45:48;;;;;;;1.20;1.10;;;;;;;;;;5033612;28;20206;-30
2022/12/29 10:48:20;;;;;;;2.07;1.20;;;;;;;;;;5034157;28;20199;-27
2022/12/29 10:50:49;;;;;;;2.50;1.37;;;;;;;;;;5013799;28;20235;-28
2022/12/29 10:53:25;;;;;;;1.20;1.10;;;;;;;;;;5027142;28;20233;-28
2022/12/29 10:56:00;;;;;;;2.47;1.37;;;;;;;;;;5027162;28;20202;-29
2022/12/29 10:58:27;;;;;;;2.03;1.57;;;;;;;;;;5022344;28;20206;-27
2022/12/29 11:00:55;;;;;;;2.33;1.27;;;;;;;;;;5025527;28;20237;-28
2022/12/29 11:03:37;;;;;;;1.50;0.87;;;;;;;;;;5031867;28;20302;-29
2022/12/29 11:06:09;;;;;;;1.40;1.30;;;;;;;;;;5024996;28;20206;-26
2022/12/29 11:08:37;;;;;;;1.60;0.97;;;;;;;;;;5031034;28;20203;-26
2022/12/29 11:11:07;;;;;;;0.97;0.77;;;;;;;;;;5031377;28;20249;-29
2022/12/29 11:13:37;;;;;;;2.87;1.10;;;;;;;;;;5024471;28;20210;-28
2022/12/29 11:16:04;;;;;;;1.37;0.97;;;;;;;;;;5031343;28;20206;-27
2022/12/29 11:18:35;;;;;;;1.07;1.00;;;;;;;;;;5031054;28;20202;-28
2022/12/29 11:21:04;;;;;;;1.30;1.20;;;;;;;;;;5025306;28;20222;-27
2022/12/29 11:23:33;;;;;;;3.87;1.10;;;;;;;;;;5029810;28;20230;-29
2022/12/29 11:26:09;;;;;;;1.13;0.80;;;;;;;;;;5030719;28;20214;-30
2022/12/29 11:28:37;;;;;;;1.57;1.10;;;;;;;;;;5016850;28;20207;-28
2022/12/29 11:31:06;;;;;;;1.17;1.07;;;;;;;;;;5024744;28;20309;-28
2022/12/29 11:33:34;;;;;;;2.00;1.10;;;;;;;;;;5030222;28;20195;-27
2022/12/29 11:36:04;;;;;;;2.97;1.20;;;;;;;;;;5022067;28;20218;-29
2022/12/29 11:38:34;;;;;;;1.07;1.07;;;;;;;;;;5030553;28;20206;-29
2022/12/29 11:41:02;;;;;;;1.43;1.20;;;;;;;;;;5030159;28;20219;-28
2022/12/29 11:43:34;;;;;;;2.10;1.17;;;;;;;;;;5022830;28;20226;-29
2022/12/29 11:46:03;;;;;;;2.43;1.00;;;;;;;;;;5025261;28;20198;-28
2022/12/29 11:48:31;;;;;;;2.27;1.23;;;;;;;;;;5030587;28;20213;-28
2022/12/29 11:51:00;;;;;;;1.80;1.13;;;;;;;;;;5030217;28;20222;-30
2022/12/29 11:53:28;;;;;;;1.23;1.13;;;;;;;;;;5021267;28;20614;-27
2022/12/29 11:55:57;;;;;;;3.40;1.30;;;;;;;;;;5031170;28;20206;-27
2022/12/29 11:58:32;;;;;;;2.20;1.50;;;;;;;;;;5021565;28;20218;-27
2022/12/29 12:01:00;;;;;;;1.87;1.00;;;;;;;;;;5029991;28;20313;-29
2022/12/29 12:03:29;;;;;;;10.80;6.80;;;;;;;;;;5030125;28;20225;-28
2022/12/29 12:05:59;;;;;;;10.40;6.83;;;;;;;;;;5030906;28;20203;-30
2022/12/29 12:08:33;;;;;;;21.50;13.17;;;;;;;;;;5015328;28;20207;-26
2022/12/29 12:11:05;;;;;;;17.97;11.20;;;;;;;;;;5024561;28;20226;-25
2022/12/29 12:13:35;;;;;;;3.23;2.17;;;;;;;;;;5022467;28;20209;-28
2022/12/29 12:16:07;;;;;;;1.50;1.40;;;;;;;;;;5024024;28;20206;-27
2022/12/29 12:18:38;;;;;;;1.40;1.30;;;;;;;;;;5031416;28;20195;-29
2022/12/29 12:21:12;;;;;;;3.07;1.37;;;;;;;;;;5027863;28;20230;-28
2022/12/29 12:23:48;;;;;;;1.40;1.30;;;;;;;;;;5017013;28;20236;-27
2022/12/29 12:26:17;;;;;;;1.30;1.20;;;;;;;;;;5019895;28;20207;-26
2022/12/29 12:28:50;;;;;;;1.17;1.13;;;;;;;;;;5019621;28;20210;-29
2022/12/29 12:31:28;;;;;;;1.40;1.30;;;;;;;;;;5027781;28;20226;-28
2022/12/29 12:33:58;;;;;;;7.63;1.60;;;;;;;;;;5024416;28;20202;-30
2022/12/29 12:36:47;;;;;;;1.40;1.27;;;;;;;;;;5021939;28;20206;-26
2022/12/29 12:39:19;;;;;;;1.43;1.30;;;;;;;;;;5028455;28;20202;-27
2022/12/29 12:42:11;;;;;;;2.37;1.30;;;;;;;;;;5020559;28;20225;-28
2022/12/29 12:44:44;;;;;;;3.10;1.57;;;;;;;;;;5024674;28;20272;-28
2022/12/29 12:47:29;;;;;;;1.30;1.20;;;;;;;;;;5030068;28;20205;-25
2022/12/29 12:50:05;;;;;;;3.00;1.60;;;;;;;;;;5029790;28;20194;-28
2022/12/29 12:52:39;;;;;;;3.20;1.40;;;;;;;;;;5022406;28;20230;-28
2022/12/29 12:55:16;;;;;;;1.43;1.20;;;;;;;;;;5021783;28;20209;-30
2022/12/29 12:57:52;;;;;;;1.17;1.17;;;;;;;;;;5022753;28;20522;-28
2022/12/29 13:00:23;;;;;;;1.70;1.50;;;;;;;;;;5024251;28;20210;-27
2022/12/29 13:02:58;;;;;;;1.40;1.30;;;;;;;;;;5028674;28;20194;-26
2022/12/29 13:05:44;;;;;;;1.73;1.40;;;;;;;;;;5011435;28;20213;-28
2022/12/29 13:08:35;;;;;;;1.13;1.10;;;;;;;;;;5022785;28;20206;-30
2022/12/29 13:11:06;;;;;;;1.77;1.37;;;;;;;;;;5008546;28;20223;-29
2022/12/29 13:13:40;;;;;;;2.63;1.17;;;;;;;;;;5022889;28;20201;-29
2022/12/29 13:16:10;;;;;;;1.83;1.27;;;;;;;;;;5019847;28;20195;-27
2022/12/29 13:18:46;;;;;;;2.30;1.20;;;;;;;;;;5029812;28;20205;-29
2022/12/29 13:21:17;;;;;;;1.40;1.30;;;;;;;;;;5030592;28;20229;-27
2022/12/29 13:23:47;;;;;;;1.37;1.27;;;;;;;;;;5032706;28;20233;-27
2022/12/29 13:26:18;;;;;;;2.67;1.10;;;;;;;;;;5022648;28;20208;-29
2022/12/29 13:28:49;;;;;;;3.07;1.10;;;;;;;;;;5026604;28;20210;-29
2022/12/29 13:31:20;;;;;;;1.40;1.20;;;;;;;;;;5032655;28;20210;-26
2022/12/29 13:33:52;;;;;;;2.07;1.30;;;;;;;;;;5032602;28;20183;-28
2022/12/29 13:36:24;;;;;;;1.00;1.00;;;;;;;;;;5022959;28;20211;-28
2022/12/29 13:38:53;;;;;;;2.43;1.47;;;;;;;;;;5032335;28;20265;-28
2022/12/29 13:41:22;;;;;;;1.13;1.03;;;;;;;;;;5033064;28;20234;-27
2022/12/29 13:43:50;;;;;;;2.27;1.40;;;;;;;;;;5027667;28;20526;-25
2022/12/29 13:46:20;;;;;;;3.03;1.47;;;;;;;;;;5031393;28;20202;-29
2022/12/29 13:48:51;;;;;;;2.30;1.60;;;;;;;;;;5031093;28;20203;-28
2022/12/29 13:51:19;;;;;;;1.87;1.30;;;;;;;;;;5028347;28;20708;-29
2022/12/29 13:53:56;;;;;;;3.40;1.60;;;;;;;;;;5028565;28;20633;-28
2022/12/29 13:56:25;;;;;;;4.30;1.50;;;;;;;;;;5035015;28;20203;-28
2022/12/29 13:58:55;;;;;;;1.60;1.40;;;;;;;;;;5020441;28;20221;-27
2022/12/29 14:01:24;;;;;;;3.80;1.67;;;;;;;;;;5033694;28;20218;-25
2022/12/29 14:03:52;;;;;;;2.37;1.47;;;;;;;;;;5034708;28;20222;-27
2022/12/29 14:06:28;;;;;;;1.73;1.57;;;;;;;;;;5029827;28;20210;-28
2022/12/29 14:08:56;;;;;;;2.73;1.57;;;;;;;;;;5032626;28;20209;-29
2022/12/29 14:11:25;;;;;;;2.80;1.60;;;;;;;;;;5034139;28;20253;-27
2022/12/29 14:13:53;;;;;;;4.07;1.70;;;;;;;;;;5023636;28;20210;-28
2022/12/29 14:16:27;;;;;;;2.07;1.33;;;;;;;;;;5032657;28;20249;-28
2022/12/29 14:18:57;;;;;;;1.63;1.53;;;;;;;;;;5028358;28;20220;-28
2022/12/29 14:21:28;;;;;;;2.03;1.40;;;;;;;;;;5034496;28;20222;-27
2022/12/29 14:24:02;;;;;;;2.20;1.33;;;;;;;;;;5025064;28;20230;-26
2022/12/29 14:26:38;;;;;;;1.70;1.50;;;;;;;;;;5034296;28;20199;-29
2022/12/29 14:29:38;;;;;;;1.37;1.27;;;;;;;;;;5022805;28;20194;-30
2022/12/29 14:32:27;;;;;;;2.53;1.20;;;;;;;;;;5031154;28;20257;-29
2022/12/29 14:34:54;;;;;;;3.53;1.47;;;;;;;;;;5034221;28;20232;-28
2022/12/29 14:37:29;;;;;;;1.00;1.00;;;;;;;;;;5028197;28;20207;-27
2022/12/29 14:40:07;;;;;;;2.30;1.30;;;;;;;;;;5032685;28;20209;-27
2022/12/29 14:42:35;;;;;;;1.30;1.20;;;;;;;;;;5028685;28;20614;-30
2022/12/29 14:45:04;;;;;;;2.03;1.20;;;;;;;;;;5034093;28;20226;-28
2022/12/29 14:47:35;;;;;;;3.73;1.10;;;;;;;;;;5035726;28;20211;-28
2022/12/29 14:50:06;;;;;;;1.40;1.30;;;;;;;;;;5035546;28;20647;-29
2022/12/29 14:52:33;;;;;;;2.73;1.03;;;;;;;;;;5026214;28;20231;-27
2022/12/29 14:55:01;;;;;;;1.27;1.03;;;;;;;;;;5030033;28;20214;-29
2022/12/29 14:57:37;;;;;;;2.67;1.10;;;;;;;;;;5029956;28;20209;-28
2022/12/29 15:00:10;;;;;;;1.10;1.00;;;;;;;;;;5030080;28;20206;-29
2022/12/29 15:02:41;;;;;;;1.23;1.13;;;;;;;;;;5031337;28;20234;-28
2022/12/29 15:05:21;;;;;;;1.83;1.40;;;;;;;;;;5034315;28;20221;-28
2022/12/29 15:07:49;;;;;;;1.73;1.50;;;;;;;;;;5029070;28;20194;-28
2022/12/29 15:10:19;;;;;;;4.83;1.70;;;;;;;;;;5033203;28;20206;-27
2022/12/29 15:12:51;;;;;;;1.60;1.40;;;;;;;;;;5023110;28;20207;-28
2022/12/29 15:15:20;;;;;;;3.40;1.27;;;;;;;;;;5029930;28;20218;-28
2022/12/29 15:17:48;;;;;;;1.70;1.30;;;;;;;;;;5031087;28;20201;-29
2022/12/29 15:20:18;;;;;;;1.37;1.23;;;;;;;;;;5032850;28;20661;-28
2022/12/29 15:22:46;;;;;;;2.47;1.27;;;;;;;;;;5022661;28;20213;-29
2022/12/29 15:25:16;;;;;;;5.43;1.63;;;;;;;;;;5030476;28;20273;-28
2022/12/29 15:27:43;;;;;;;4.10;1.63;;;;;;;;;;5028798;28;20462;-27
2022/12/29 15:30:14;;;;;;;1.93;1.40;;;;;;;;;;5026569;28;20207;-28